createdAt,value
2018-08-12T00:00:42.625Z,100229.00
2018-08-12T00:03:13.860Z,100229.00
2018-08-12T00:05:44.400Z,100225.00
2018-08-12T00:08:15.198Z,100227.00
2018-08-12T00:10:47.159Z,100226.00
2018-08-12T00:13:18.227Z,100222.00
2018-08-12T00:15:48.584Z,100222.00
2018-08-12T00:18:20.418Z,100217.00
2018-08-12T00:20:49.852Z,100213.00
2018-08-12T00:23:19.763Z,100212.00
2018-08-12T00:25:49.684Z,100207.00
2018-08-12T00:28:19.462Z,100203.00
2018-08-12T00:30:52.169Z,100198.00
2018-08-12T00:33:22.893Z,100198.00
2018-08-12T00:35:54.991Z,100193.00
2018-08-12T00:38:26.912Z,100196.00
2018-08-12T00:40:58.443Z,100186.00
2018-08-12T00:43:29.672Z,100188.00
2018-08-12T00:46:03.165Z,100188.00
2018-08-12T00:48:34.142Z,100190.00
2018-08-12T00:51:05.727Z,100184.00
2018-08-12T00:53:35.769Z,100185.00
2018-08-12T00:56:06.194Z,100186.00
2018-08-12T00:58:36.211Z,100182.00
2018-08-12T01:01:07.824Z,100177.00
2018-08-12T01:03:37.223Z,100180.00
2018-08-12T01:06:06.634Z,100178.00
2018-08-12T01:08:37.252Z,100174.00
2018-08-12T01:11:08.880Z,100171.00
2018-08-12T01:13:39.624Z,100171.00
2018-08-12T01:16:09.731Z,100167.00
2018-08-12T01:18:43.064Z,100166.00
2018-08-12T01:21:12.559Z,100161.00
2018-08-12T01:23:43.453Z,100166.00
2018-08-12T01:26:13.201Z,100162.00
2018-08-12T01:28:43.686Z,100164.00
2018-08-12T01:31:14.965Z,100163.00
2018-08-12T01:33:46.362Z,100160.00
2018-08-12T01:36:15.642Z,100166.00
2018-08-12T01:38:45.770Z,100160.00
2018-08-12T01:41:19.421Z,100154.00
2018-08-12T01:43:49.868Z,100152.00
2018-08-12T01:46:20.645Z,100146.00
2018-08-12T01:48:51.335Z,100144.00
2018-08-12T01:51:23.053Z,100143.00
2018-08-12T01:53:52.197Z,100147.00
2018-08-12T01:56:21.346Z,100140.00
2018-08-12T01:58:50.440Z,100140.00
2018-08-12T02:01:22.671Z,100141.00
2018-08-12T02:03:52.749Z,100136.00
2018-08-12T02:06:23.569Z,100142.00
2018-08-12T02:08:54.131Z,100138.00
2018-08-12T02:11:24.554Z,100137.00
2018-08-12T02:13:56.070Z,100132.00
2018-08-12T02:16:26.850Z,100130.00
2018-08-12T02:18:58.773Z,100125.00
2018-08-12T02:21:28.829Z,100119.00
2018-08-12T02:23:58.067Z,100117.00
2018-08-12T02:26:32.889Z,100115.00
2018-08-12T02:29:02.024Z,100111.00
2018-08-12T02:31:31.096Z,100105.00
2018-08-12T02:34:02.827Z,100101.00
2018-08-12T02:36:35.130Z,100096.00
2018-08-12T02:39:07.262Z,100094.00
2018-08-12T02:41:38.012Z,100090.00
2018-08-12T02:44:08.320Z,100090.00
2018-08-12T02:46:39.091Z,100089.00
2018-08-12T02:49:09.323Z,100085.00
2018-08-12T02:51:39.340Z,100079.00
2018-08-12T02:54:10.021Z,100071.00
2018-08-12T02:56:39.209Z,100070.00
2018-08-12T02:59:11.209Z,100064.00
2018-08-12T03:01:41.229Z,100065.00
2018-08-12T03:04:11.060Z,100057.00
2018-08-12T03:06:42.750Z,100066.00
2018-08-12T03:09:13.274Z,100065.00
2018-08-12T03:11:44.825Z,100059.00
2018-08-12T03:14:14.960Z,100053.00
2018-08-12T03:16:46.128Z,100044.00
2018-08-12T03:19:15.690Z,100046.00
2018-08-12T03:21:45.242Z,100040.00
2018-08-12T03:24:14.911Z,100032.00
2018-08-12T03:26:46.393Z,100034.00
2018-08-12T03:29:16.984Z,100036.00
2018-08-12T03:31:48.152Z,100030.00
2018-08-12T03:34:17.653Z,100023.00
2018-08-12T03:36:47.722Z,100027.00
2018-08-12T03:39:18.299Z,100023.00
2018-08-12T03:41:48.961Z,100025.00
2018-08-12T03:44:21.267Z,100028.00
2018-08-12T03:46:51.238Z,100021.00
2018-08-12T03:49:21.403Z,100018.00
2018-08-12T03:51:51.679Z,100016.00
2018-08-12T03:54:22.621Z,100016.00
2018-08-12T03:56:51.808Z,100015.00
2018-08-12T03:59:20.911Z,100010.00
2018-08-12T04:01:50.143Z,100008.00
2018-08-12T04:04:19.332Z,100006.00
2018-08-12T04:06:48.745Z,100007.00
2018-08-12T04:09:18.008Z,100009.00
2018-08-12T04:11:47.261Z,100010.00
2018-08-12T04:14:16.711Z,100007.00
2018-08-12T04:16:54.003Z,100003.00
2018-08-12T04:19:23.373Z,100004.00
2018-08-12T04:21:55.500Z,100002.00
2018-08-12T04:24:26.843Z,100003.00
2018-08-12T04:26:57.753Z,99993.00
2018-08-12T04:29:30.171Z,99997.00
2018-08-12T04:32:00.158Z,99997.00
2018-08-12T04:34:31.848Z,99998.00
2018-08-12T04:37:01.955Z,100000.00
2018-08-12T04:39:32.764Z,100000.00
2018-08-12T04:42:01.965Z,99992.00
2018-08-12T04:44:31.090Z,99993.00
2018-08-12T04:47:00.266Z,99993.00
2018-08-12T04:49:29.964Z,99997.00
2018-08-12T04:51:59.422Z,99997.00
2018-08-12T04:54:28.981Z,99997.00
2018-08-12T04:56:58.471Z,99995.00
2018-08-12T04:59:27.772Z,99993.00
2018-08-12T05:01:57.134Z,99988.00
2018-08-12T05:04:26.353Z,99995.00
2018-08-12T05:06:55.697Z,99988.00
2018-08-12T05:09:24.911Z,99992.00
2018-08-12T05:11:54.060Z,99983.00
2018-08-12T05:14:23.260Z,99984.00
2018-08-12T05:16:52.913Z,99986.00
2018-08-12T05:19:21.983Z,99981.00
2018-08-12T05:21:58.079Z,99982.00
2018-08-12T05:24:27.696Z,99975.00
2018-08-12T05:26:56.900Z,99977.00
2018-08-12T05:29:26.026Z,99974.00
2018-08-12T05:31:55.421Z,99978.00
2018-08-12T05:34:25.465Z,99973.00
2018-08-12T05:36:54.827Z,99967.00
2018-08-12T05:39:24.337Z,99968.00
2018-08-12T05:41:53.736Z,99964.00
2018-08-12T05:44:22.932Z,99959.00
2018-08-12T05:46:52.358Z,99964.00
2018-08-12T05:49:21.742Z,99964.00
2018-08-12T05:51:51.259Z,99959.00
2018-08-12T05:54:20.786Z,99954.00
2018-08-12T05:56:50.046Z,99958.00
2018-08-12T05:59:19.240Z,99953.00
2018-08-12T06:01:48.436Z,99954.00
2018-08-12T06:04:17.800Z,99953.00
2018-08-12T06:06:47.147Z,99939.00
2018-08-12T06:09:16.530Z,99943.00
2018-08-12T06:11:45.860Z,99946.00
2018-08-12T06:14:15.037Z,99947.00
2018-08-12T06:16:44.435Z,99942.00
2018-08-12T06:19:13.943Z,99939.00
2018-08-12T06:21:44.215Z,99937.00
2018-08-12T06:24:13.579Z,99932.00
2018-08-12T06:26:43.036Z,99929.00
2018-08-12T06:29:13.489Z,99928.00
2018-08-12T06:31:42.872Z,99931.00
2018-08-12T06:34:12.199Z,99929.00
2018-08-12T06:36:41.440Z,99929.00
2018-08-12T06:39:12.025Z,99927.00
2018-08-12T06:41:41.573Z,99917.00
2018-08-12T06:44:10.932Z,99919.00
2018-08-12T06:46:40.282Z,99919.00
2018-08-12T06:49:09.850Z,99917.00
2018-08-12T06:51:39.679Z,99913.00
2018-08-12T06:54:09.188Z,99915.00
2018-08-12T06:56:38.702Z,99912.00
2018-08-12T06:59:08.596Z,99911.00
2018-08-12T07:01:40.016Z,99912.00
2018-08-12T07:04:10.586Z,99912.00
2018-08-12T07:06:42.183Z,99908.00
2018-08-12T07:09:12.554Z,99905.00
2018-08-12T07:11:44.553Z,99903.00
2018-08-12T07:14:16.140Z,99904.00
2018-08-12T07:16:45.913Z,99901.00
2018-08-12T07:19:18.238Z,99894.00
2018-08-12T07:21:49.168Z,99896.00
2018-08-12T07:24:18.544Z,99899.00
2018-08-12T07:26:47.751Z,99900.00
2018-08-12T07:29:17.059Z,99893.00
2018-08-12T07:31:47.787Z,99896.00
2018-08-12T07:34:18.338Z,99893.00
2018-08-12T07:36:47.479Z,99895.00
2018-08-12T07:39:16.889Z,99890.00
2018-08-12T07:41:46.197Z,99891.00
2018-08-12T07:44:15.779Z,99886.00
2018-08-12T07:46:45.729Z,99884.00
2018-08-12T07:49:15.093Z,99883.00
2018-08-12T07:51:44.565Z,99887.00
2018-08-12T07:54:13.892Z,99881.00
2018-08-12T07:56:43.208Z,99883.00
2018-08-12T07:59:12.563Z,99880.00
2018-08-12T08:01:42.725Z,99883.00
2018-08-12T08:04:12.084Z,99877.00
2018-08-12T08:06:41.446Z,99874.00
2018-08-12T08:09:12.329Z,99875.00
2018-08-12T08:11:42.218Z,99878.00
2018-08-12T08:14:11.520Z,99875.00
2018-08-12T08:16:40.981Z,99874.00
2018-08-12T08:19:10.547Z,99872.00
2018-08-12T08:21:41.200Z,99872.00
2018-08-12T08:24:10.703Z,99871.00
2018-08-12T08:26:39.973Z,99871.00
2018-08-12T08:29:09.968Z,99866.00
2018-08-12T08:31:40.249Z,99860.00
2018-08-12T08:34:09.609Z,99861.00
2018-08-12T08:36:39.221Z,99868.00
2018-08-12T08:39:12.608Z,99855.00
2018-08-12T08:41:42.226Z,99859.00
2018-08-12T08:44:11.873Z,99859.00
2018-08-12T08:46:41.624Z,99856.00
2018-08-12T08:49:11.115Z,99854.00
2018-08-12T08:51:40.654Z,99852.00
2018-08-12T08:54:10.544Z,99844.00
2018-08-12T08:56:40.129Z,99851.00
2018-08-12T08:59:10.044Z,99851.00
2018-08-12T09:01:39.365Z,99851.00
2018-08-12T09:04:08.818Z,99838.00
2018-08-12T09:06:38.255Z,99834.00
2018-08-12T09:09:12.814Z,99832.00
2018-08-12T09:11:42.022Z,99823.00
2018-08-12T09:14:11.979Z,99825.00
2018-08-12T09:16:42.803Z,99826.00
2018-08-12T09:19:12.461Z,99829.00
2018-08-12T09:21:42.046Z,99829.00
2018-08-12T09:24:11.358Z,99825.00
2018-08-12T09:26:40.972Z,99823.00
2018-08-12T09:29:10.716Z,99824.00
2018-08-12T09:31:40.215Z,99818.00
2018-08-12T09:34:09.985Z,99820.00
2018-08-12T09:36:39.371Z,99823.00
2018-08-12T09:39:11.793Z,99818.00
2018-08-12T09:41:42.024Z,99823.00
2018-08-12T09:44:11.400Z,99818.00
2018-08-12T09:46:40.865Z,99812.00
2018-08-12T09:49:10.541Z,99808.00
2018-08-12T09:51:40.632Z,99807.00
2018-08-12T09:54:10.149Z,99808.00
2018-08-12T09:56:39.881Z,99803.00
2018-08-12T09:59:09.589Z,99797.00
2018-08-12T10:01:39.966Z,99792.00
2018-08-12T10:04:10.638Z,99788.00
2018-08-12T10:06:40.872Z,99793.00
2018-08-12T10:09:12.416Z,99793.00
2018-08-12T10:11:41.964Z,99786.00
2018-08-12T10:14:12.375Z,99787.00
2018-08-12T10:16:42.313Z,99781.00
2018-08-12T10:19:13.516Z,99787.00
2018-08-12T10:21:43.544Z,99771.00
2018-08-12T10:24:13.758Z,99767.00
2018-08-12T10:26:45.473Z,99766.00
2018-08-12T10:29:14.875Z,99758.00
2018-08-12T10:31:44.358Z,99756.00
2018-08-12T10:34:13.788Z,99757.00
2018-08-12T10:36:46.132Z,99750.00
2018-08-12T10:39:16.889Z,99753.00
2018-08-12T10:44:26.281Z,99741.00
2018-08-12T10:46:55.543Z,99740.00
2018-08-12T10:49:24.991Z,99736.00
2018-08-12T10:51:54.762Z,99740.00
2018-08-12T10:54:24.436Z,99730.00
2018-08-12T10:56:54.100Z,99725.00
2018-08-12T10:59:23.851Z,99731.00
2018-08-12T11:01:53.642Z,99730.00
2018-08-12T11:04:22.886Z,99729.00
2018-08-12T11:06:52.380Z,99726.00
2018-08-12T11:09:21.685Z,99729.00
2018-08-12T11:11:52.124Z,99724.00
2018-08-12T11:14:21.529Z,99724.00
2018-08-12T11:16:52.510Z,99729.00
2018-08-12T11:19:21.700Z,99724.00
2018-08-12T11:21:50.870Z,99713.00
2018-08-12T11:24:20.024Z,99709.00
2018-08-12T11:26:49.358Z,99709.00
2018-08-12T11:29:18.635Z,99704.00
2018-08-12T11:31:48.604Z,99694.00
2018-08-12T11:34:18.055Z,99689.00
2018-08-12T11:36:47.680Z,99688.00
2018-08-12T11:39:18.799Z,99686.00
2018-08-12T11:41:48.434Z,99686.00
2018-08-12T11:44:17.963Z,99686.00
2018-08-12T11:46:47.439Z,99680.00
2018-08-12T11:49:16.866Z,99678.00
2018-08-12T11:51:46.442Z,99674.00
2018-08-12T11:54:15.796Z,99672.00
2018-08-12T11:56:45.310Z,99668.00
2018-08-12T11:59:14.775Z,99666.00
2018-08-12T12:01:44.020Z,99663.00
2018-08-12T12:04:13.414Z,99657.00
2018-08-12T12:06:42.781Z,99645.00
2018-08-12T12:09:12.294Z,99643.00
2018-08-12T12:11:42.515Z,99644.00
2018-08-12T12:14:12.130Z,99640.00
2018-08-12T12:16:42.044Z,99633.00
2018-08-12T12:19:11.501Z,99631.00
2018-08-12T12:21:41.283Z,99626.00
2018-08-12T12:24:10.973Z,99628.00
2018-08-12T12:26:40.757Z,99622.00
2018-08-12T12:29:10.554Z,99617.00
2018-08-12T12:31:39.972Z,99606.00
2018-08-12T12:34:09.971Z,99603.00
2018-08-12T12:36:40.447Z,99594.00
2018-08-12T12:39:11.468Z,99587.00
2018-08-12T12:41:41.566Z,99590.00
2018-08-12T12:44:12.114Z,99579.00
2018-08-12T12:46:41.780Z,99586.00
2018-08-12T12:49:11.475Z,99575.00
2018-08-12T12:51:42.438Z,99576.00
2018-08-12T12:54:11.974Z,99567.00
2018-08-12T12:56:41.366Z,99566.00
2018-08-12T12:59:11.374Z,99565.00
2018-08-12T13:01:40.972Z,99561.00
2018-08-12T13:04:10.302Z,99564.00
2018-08-12T13:06:39.832Z,99558.00
2018-08-12T13:09:12.609Z,99558.00
2018-08-12T13:11:42.521Z,99548.00
2018-08-12T13:14:12.098Z,99537.00
2018-08-12T13:16:44.205Z,99537.00
2018-08-12T13:19:13.975Z,99539.00
2018-08-12T13:21:43.094Z,99533.00
2018-08-12T13:24:12.541Z,99533.00
2018-08-12T13:26:41.898Z,99523.00
2018-08-12T13:29:12.038Z,99525.00
2018-08-12T13:31:41.393Z,99517.00
2018-08-12T13:34:10.744Z,99515.00
2018-08-12T13:36:40.118Z,99515.00
2018-08-12T13:39:11.849Z,99509.00
2018-08-12T13:41:41.222Z,99508.00
2018-08-12T13:44:11.066Z,99505.00
2018-08-12T13:46:40.611Z,99494.00
2018-08-12T13:49:11.094Z,99493.00
2018-08-12T13:51:40.536Z,99481.00
2018-08-12T13:54:09.902Z,99488.00
2018-08-12T13:56:40.999Z,99488.00
2018-08-12T13:59:12.226Z,99479.00
2018-08-12T14:01:41.840Z,99473.00
2018-08-12T14:04:11.297Z,99463.00
2018-08-12T14:06:41.805Z,99463.00
2018-08-12T14:09:11.735Z,99465.00
2018-08-12T14:11:41.197Z,99458.00
2018-08-12T14:14:10.627Z,99448.00
2018-08-12T14:16:40.183Z,99450.00
2018-08-12T14:19:09.676Z,99434.00
2018-08-12T14:21:38.858Z,99440.00
2018-08-12T14:24:08.481Z,99435.00
2018-08-12T14:26:37.733Z,99427.00
2018-08-12T14:29:06.940Z,99423.00
2018-08-12T14:31:36.118Z,99422.00
2018-08-12T14:34:05.554Z,99414.00
2018-08-12T14:36:35.133Z,99409.00
2018-08-12T14:39:06.187Z,99409.00
2018-08-12T14:41:35.423Z,99401.00
2018-08-12T14:44:04.766Z,99397.00
2018-08-12T14:46:34.082Z,99401.00
2018-08-12T14:49:03.600Z,99391.00
2018-08-12T14:51:32.855Z,99392.00
2018-08-12T14:54:01.955Z,99393.00
2018-08-12T14:56:31.156Z,99397.00
2018-08-12T14:59:00.334Z,99392.00
2018-08-12T15:01:29.800Z,99393.00
2018-08-12T15:03:59.015Z,99391.00
2018-08-12T15:06:28.268Z,99387.00
2018-08-12T15:08:57.389Z,99382.00
2018-08-12T15:11:26.763Z,99385.00
2018-08-12T15:13:55.996Z,99383.00
2018-08-12T15:16:25.244Z,99390.00
2018-08-12T15:18:54.648Z,99386.00
2018-08-12T15:21:23.921Z,99380.00
2018-08-12T15:23:53.124Z,99381.00
2018-08-12T15:26:22.319Z,99381.00
2018-08-12T15:28:51.542Z,99378.00
2018-08-12T15:31:20.791Z,99376.00
2018-08-12T15:33:50.088Z,99379.00
2018-08-12T15:36:19.650Z,99383.00
2018-08-12T15:38:48.967Z,99376.00
2018-08-12T15:41:18.175Z,99379.00
2018-08-12T15:43:47.343Z,99373.00
2018-08-12T15:46:16.689Z,99377.00
2018-08-12T15:48:46.116Z,99369.00
2018-08-12T15:51:15.446Z,99367.00
2018-08-12T15:53:44.677Z,99368.00
2018-08-12T15:56:13.923Z,99363.00
2018-08-12T15:58:43.322Z,99364.00
2018-08-12T16:01:12.461Z,99362.00
2018-08-12T16:03:42.233Z,99359.00
2018-08-12T16:06:11.452Z,99357.00
2018-08-12T16:08:40.777Z,99355.00
2018-08-12T16:11:10.221Z,99352.00
2018-08-12T16:13:39.683Z,99350.00
2018-08-12T16:16:09.110Z,99350.00
2018-08-12T16:18:38.319Z,99349.00
2018-08-12T16:21:07.872Z,99343.00
2018-08-12T16:23:37.099Z,99336.00
2018-08-12T16:26:06.388Z,99338.00
2018-08-12T16:28:35.667Z,99335.00
2018-08-12T16:31:04.896Z,99331.00
2018-08-12T16:33:34.014Z,99328.00
2018-08-12T16:36:03.192Z,99323.00
2018-08-12T16:38:32.413Z,99320.00
2018-08-12T16:41:01.623Z,99309.00
2018-08-12T16:43:31.564Z,99306.00
2018-08-12T16:46:00.716Z,99305.00
2018-08-12T16:48:30.370Z,99300.00
2018-08-12T16:50:59.644Z,99298.00
2018-08-12T16:53:28.835Z,99294.00
2018-08-12T16:55:58.048Z,99292.00
2018-08-12T16:58:27.160Z,99285.00
2018-08-12T17:00:56.356Z,99277.00
2018-08-12T17:03:26.512Z,99276.00
2018-08-12T17:05:55.921Z,99276.00
2018-08-12T17:08:25.083Z,99278.00
2018-08-12T17:10:54.309Z,99280.00
2018-08-12T17:13:23.459Z,99276.00
2018-08-12T17:15:52.727Z,99275.00
2018-08-12T17:18:21.983Z,99275.00
2018-08-12T17:20:51.206Z,99267.00
2018-08-12T17:23:20.468Z,99267.00
2018-08-12T17:25:49.781Z,99257.00
2018-08-12T17:28:18.775Z,99260.00
2018-08-12T17:30:47.941Z,99255.00
2018-08-12T17:33:17.164Z,99258.00
2018-08-12T17:35:46.414Z,99249.00
2018-08-12T17:38:15.656Z,99256.00
2018-08-12T17:40:45.019Z,99251.00
2018-08-12T17:43:14.224Z,99242.00
2018-08-12T17:45:43.360Z,99243.00
2018-08-12T17:48:13.117Z,99244.00
2018-08-12T17:50:42.232Z,99248.00
2018-08-12T17:53:11.927Z,99243.00
2018-08-12T17:55:41.456Z,99242.00
2018-08-12T17:58:11.113Z,99244.00
2018-08-12T18:00:41.900Z,99245.00
2018-08-12T18:03:12.086Z,99251.00
2018-08-12T18:05:41.264Z,99244.00
2018-08-12T18:08:10.834Z,99241.00
2018-08-12T18:10:40.154Z,99246.00
2018-08-12T18:13:10.362Z,99247.00
2018-08-12T18:15:40.221Z,99249.00
2018-08-12T18:18:10.231Z,99248.00
2018-08-12T18:20:40.174Z,99247.00
2018-08-12T18:23:10.105Z,99244.00
2018-08-12T18:25:40.376Z,99249.00
2018-08-12T18:28:10.250Z,99251.00
2018-08-12T18:30:39.813Z,99250.00
2018-08-12T18:33:09.947Z,99254.00
2018-08-12T18:35:39.273Z,99251.00
2018-08-12T18:38:08.579Z,99245.00
2018-08-12T18:40:38.766Z,99243.00
2018-08-12T18:43:08.125Z,99240.00
2018-08-12T18:45:37.936Z,99235.00
2018-08-12T18:48:07.370Z,99236.00
2018-08-12T18:50:36.609Z,99233.00
2018-08-12T18:53:05.847Z,99231.00
2018-08-12T18:55:35.158Z,99238.00
2018-08-12T18:58:05.304Z,99234.00
2018-08-12T19:00:34.696Z,99233.00
2018-08-12T19:03:04.061Z,99237.00
2018-08-12T19:05:33.268Z,99230.00
2018-08-12T19:08:02.589Z,99236.00
2018-08-12T19:10:31.799Z,99238.00
2018-08-12T19:13:01.001Z,99242.00
2018-08-12T19:15:30.317Z,99246.00
2018-08-12T19:18:01.416Z,99255.00
2018-08-12T19:20:30.588Z,99255.00
2018-08-12T19:23:04.031Z,99254.00
2018-08-12T19:25:33.651Z,99248.00
2018-08-12T19:28:02.814Z,99251.00
2018-08-12T19:30:32.010Z,99251.00
2018-08-12T19:33:01.191Z,99252.00
2018-08-12T19:35:30.382Z,99254.00
2018-08-12T19:38:03.450Z,99250.00
2018-08-12T19:40:32.803Z,99248.00
2018-08-12T19:43:02.227Z,99244.00
2018-08-12T19:45:31.469Z,99242.00
2018-08-12T19:48:00.801Z,99247.00
2018-08-12T19:50:30.147Z,99246.00
2018-08-12T19:52:59.462Z,99243.00
2018-08-12T19:55:28.831Z,99238.00
2018-08-12T19:57:58.055Z,99228.00
2018-08-12T20:00:27.273Z,99230.00
2018-08-12T20:02:56.352Z,99223.00
2018-08-12T20:05:25.627Z,99218.00
2018-08-12T20:07:54.852Z,99213.00
2018-08-12T20:10:24.030Z,99205.00
2018-08-12T20:12:53.105Z,99209.00
2018-08-12T20:15:22.352Z,99206.00
2018-08-12T20:17:51.423Z,99206.00
2018-08-12T20:20:20.524Z,99201.00
2018-08-12T20:22:49.675Z,99201.00
2018-08-12T20:25:19.118Z,99200.00
2018-08-12T20:27:48.240Z,99199.00
2018-08-12T20:30:17.341Z,99194.00
2018-08-12T20:32:46.494Z,99202.00
2018-08-12T20:35:15.940Z,99202.00
2018-08-12T20:37:45.053Z,99203.00
2018-08-12T20:40:14.257Z,99195.00
2018-08-12T20:42:43.374Z,99193.00
2018-08-12T20:45:12.586Z,99195.00
2018-08-12T20:47:41.892Z,99186.00
2018-08-12T20:50:11.744Z,99191.00
2018-08-12T20:52:41.766Z,99188.00
2018-08-12T20:55:12.076Z,99187.00
2018-08-12T20:57:41.198Z,99184.00
2018-08-12T21:00:11.345Z,99182.00
2018-08-12T21:02:40.548Z,99188.00
2018-08-12T21:05:10.764Z,99188.00
2018-08-12T21:07:41.300Z,99187.00
2018-08-12T21:10:11.499Z,99190.00
2018-08-12T21:12:41.476Z,99187.00
2018-08-12T21:15:10.647Z,99185.00
2018-08-12T21:17:39.736Z,99182.00
2018-08-12T21:20:08.866Z,99178.00
2018-08-12T21:22:38.460Z,99178.00
2018-08-12T21:25:08.222Z,99174.00
2018-08-12T21:27:37.833Z,99169.00
2018-08-12T21:30:07.160Z,99166.00
2018-08-12T21:32:36.206Z,99161.00
2018-08-12T21:35:05.332Z,99163.00
2018-08-12T21:37:34.878Z,99159.00
2018-08-12T21:40:04.186Z,99155.00
2018-08-12T21:42:33.279Z,99151.00
2018-08-12T21:45:02.421Z,99150.00
2018-08-12T21:47:31.477Z,99141.00
2018-08-12T21:50:00.941Z,99142.00
2018-08-12T21:52:31.313Z,99138.00
2018-08-12T21:55:01.236Z,99140.00
2018-08-12T21:57:30.509Z,99128.00
2018-08-12T21:59:59.663Z,99129.00
2018-08-12T22:02:28.922Z,99123.00
2018-08-12T22:04:58.249Z,99126.00
2018-08-12T22:07:27.352Z,99126.00
2018-08-12T22:09:56.546Z,99124.00
2018-08-12T22:12:25.687Z,99122.00
2018-08-12T22:14:54.856Z,99119.00
2018-08-12T22:17:23.967Z,99115.00
2018-08-12T22:19:53.098Z,99112.00
2018-08-12T22:22:22.224Z,99106.00
2018-08-12T22:24:51.391Z,99112.00
2018-08-12T22:27:20.536Z,99111.00
2018-08-12T22:29:49.720Z,99114.00
2018-08-12T22:32:18.801Z,99114.00
2018-08-12T22:34:47.853Z,99110.00
2018-08-12T22:37:16.994Z,99107.00
2018-08-12T22:39:48.968Z,99105.00
2018-08-12T22:42:18.075Z,99100.00
2018-08-12T22:44:47.132Z,99096.00
2018-08-12T22:47:16.235Z,99083.00
2018-08-12T22:49:45.452Z,99081.00
2018-08-12T22:52:14.616Z,99078.00
2018-08-12T22:54:43.771Z,99078.00
2018-08-12T22:57:12.976Z,99080.00
2018-08-12T22:59:42.181Z,99077.00
2018-08-12T23:02:11.485Z,99069.00
2018-08-12T23:04:40.649Z,99064.00
2018-08-12T23:07:10.475Z,99063.00
2018-08-12T23:09:39.789Z,99058.00
2018-08-12T23:12:08.944Z,99057.00
2018-08-12T23:14:38.094Z,99057.00
2018-08-12T23:17:07.140Z,99051.00
2018-08-12T23:19:36.246Z,99054.00
2018-08-12T23:22:05.361Z,99047.00
2018-08-12T23:24:34.448Z,99043.00
2018-08-12T23:27:03.541Z,99037.00
2018-08-12T23:29:32.606Z,99034.00
2018-08-12T23:32:01.735Z,99036.00
2018-08-12T23:34:30.778Z,99030.00
2018-08-12T23:36:59.903Z,99030.00
2018-08-12T23:39:28.988Z,99023.00
2018-08-12T23:41:58.027Z,99016.00
2018-08-12T23:44:27.214Z,99011.00
2018-08-12T23:46:56.469Z,99013.00
2018-08-12T23:49:25.512Z,99002.00
2018-08-12T23:51:54.737Z,98996.00
2018-08-12T23:54:23.917Z,98996.00
2018-08-12T23:56:52.965Z,98998.00
2018-08-12T23:59:22.052Z,98997.00
